Open Full Screen Window  High Contrast Mode
Wind Gusting 00 knots
05
April 21, 2018 8:43 PM EDT
Weather Information
Wind Direction
  010 °
Wind Speed
  05 kt (6 mph)
Wind Gust
  00 kt (0 mph)
Altimeter
30.36 in
Visibility
10 SM
Temperature
10° C
50° F
Dewpoint
-05° C
23° F
Humidity
35%
1hr Rain Fall
00.00 in.
24hr Rain Fall
00.00 in.
Sky Condition
Scattered @ 10,000 ft
VFR

METAR KDLZ 220043Z AUTO 01005KT 10SM SCT100 10/M05 A3036 RMK AO2

*Background is not an actual portrayal of the airport.